sensor_id;sensor_type;location;lat;lon;timestamp;pressure;altitude;pressure_sealevel;temperature;humidity
21742;BME280;11033;47.490;11.116;2022-10-16T00:00:15;93286.09;;;12.07;93.59
21742;BME280;11033;47.490;11.116;2022-10-16T00:02:40;93284.69;;;12.12;92.72
21742;BME280;11033;47.490;11.116;2022-10-16T00:05:05;93280.59;;;12.02;93.96
21742;BME280;11033;47.490;11.116;2022-10-16T00:07:31;93278.19;;;12.07;93.69
21742;BME280;11033;47.490;11.116;2022-10-16T00:09:56;93290.75;;;12.05;94.06
21742;BME280;11033;47.490;11.116;2022-10-16T00:12:21;93295.22;;;12.05;93.38
21742;BME280;11033;47.490;11.116;2022-10-16T00:14:46;93296.28;;;12.11;93.25
21742;BME280;11033;47.490;11.116;2022-10-16T00:17:12;93297.69;;;12.13;92.86
21742;BME280;11033;47.490;11.116;2022-10-16T00:19:37;93295.25;;;12.12;93.79
21742;BME280;11033;47.490;11.116;2022-10-16T00:22:02;93290.38;;;12.09;93.50
21742;BME280;11033;47.490;11.116;2022-10-16T00:24:28;93297.31;;;12.16;92.55
21742;BME280;11033;47.490;11.116;2022-10-16T00:26:53;93300.56;;;12.18;92.15
21742;BME280;11033;47.490;11.116;2022-10-16T00:29:18;93287.56;;;12.17;91.82
21742;BME280;11033;47.490;11.116;2022-10-16T00:31:43;93284.50;;;12.13;92.92
21742;BME280;11033;47.490;11.116;2022-10-16T00:34:09;93285.94;;;12.16;92.29
21742;BME280;11033;47.490;11.116;2022-10-16T00:36:34;93295.25;;;12.12;92.80
21742;BME280;11033;47.490;11.116;2022-10-16T00:39:00;93293.22;;;12.14;92.05
21742;BME280;11033;47.490;11.116;2022-10-16T00:41:26;93287.53;;;12.10;92.45
21742;BME280;11033;47.490;11.116;2022-10-16T00:43:57;93295.03;;;12.06;94.09
21742;BME280;11033;47.490;11.116;2022-10-16T00:46:34;93301.31;;;12.05;92.74
21742;BME280;11033;47.490;11.116;2022-10-16T00:49:10;93304.97;;;12.04;93.11
21742;BME280;11033;47.490;11.116;2022-10-16T00:51:38;93294.03;;;12.07;91.52
21742;BME280;11033;47.490;11.116;2022-10-16T00:54:08;93301.09;;;12.00;92.97
21742;BME280;11033;47.490;11.116;2022-10-16T00:56:34;93303.31;;;11.97;93.31
21742;BME280;11033;47.490;11.116;2022-10-16T00:59:04;93296.22;;;12.04;92.31
21742;BME280;11033;47.490;11.116;2022-10-16T01:01:31;93291.94;;;11.96;92.31
21742;BME280;11033;47.490;11.116;2022-10-16T01:03:56;93285.03;;;11.95;92.58
21742;BME280;11033;47.490;11.116;2022-10-16T01:09:11;93296.34;;;11.89;92.67
21742;BME280;11033;47.490;11.116;2022-10-16T01:11:44;93292.72;;;11.90;91.79
21742;BME280;11033;47.490;11.116;2022-10-16T01:14:22;93294.34;;;11.91;92.44
21742;BME280;11033;47.490;11.116;2022-10-16T01:16:55;93293.31;;;11.92;92.42
21742;BME280;11033;47.490;11.116;2022-10-16T01:19:44;93293.91;;;11.88;91.96
21742;BME280;11033;47.490;11.116;2022-10-16T01:22:13;93292.66;;;11.84;92.38
21742;BME280;11033;47.490;11.116;2022-10-16T01:24:40;93296.13;;;11.84;91.69
21742;BME280;11033;47.490;11.116;2022-10-16T01:29:52;93310.53;;;11.82;92.91
21742;BME280;11033;47.490;11.116;2022-10-16T01:32:40;93310.94;;;11.85;91.84
21742;BME280;11033;47.490;11.116;2022-10-16T01:37:47;93321.91;;;11.82;92.45
21742;BME280;11033;47.490;11.116;2022-10-16T01:40:16;93318.63;;;11.80;92.54
21742;BME280;11033;47.490;11.116;2022-10-16T01:42:48;93318.81;;;11.79;92.83
21742;BME280;11033;47.490;11.116;2022-10-16T01:45:17;93314.38;;;11.79;91.95
21742;BME280;11033;47.490;11.116;2022-10-16T01:47:45;93318.47;;;11.88;92.31
21742;BME280;11033;47.490;11.116;2022-10-16T01:50:12;93316.00;;;11.80;92.90
21742;BME280;11033;47.490;11.116;2022-10-16T01:52:43;93314.38;;;11.79;93.46
21742;BME280;11033;47.490;11.116;2022-10-16T01:55:10;93311.72;;;11.79;92.89
21742;BME280;11033;47.490;11.116;2022-10-16T01:57:42;93304.56;;;11.73;93.63
21742;BME280;11033;47.490;11.116;2022-10-16T02:00:12;93299.28;;;11.73;94.31
21742;BME280;11033;47.490;11.116;2022-10-16T02:02:41;93302.34;;;11.77;93.01
21742;BME280;11033;47.490;11.116;2022-10-16T02:05:28;93303.53;;;11.74;93.10
21742;BME280;11033;47.490;11.116;2022-10-16T02:07:55;93312.72;;;11.78;93.18
21742;BME280;11033;47.490;11.116;2022-10-16T02:10:21;93313.16;;;11.82;92.66
21742;BME280;11033;47.490;11.116;2022-10-16T02:15:40;93329.63;;;11.84;92.28
21742;BME280;11033;47.490;11.116;2022-10-16T02:18:06;93332.88;;;11.86;91.85
21742;BME280;11033;47.490;11.116;2022-10-16T02:21:18;93327.56;;;11.79;92.96
21742;BME280;11033;47.490;11.116;2022-10-16T02:23:47;93323.53;;;11.83;92.39
21742;BME280;11033;47.490;11.116;2022-10-16T02:26:27;93328.41;;;11.86;91.84
21742;BME280;11033;47.490;11.116;2022-10-16T02:28:56;93320.69;;;11.85;92.02
21742;BME280;11033;47.490;11.116;2022-10-16T02:31:27;93319.06;;;11.84;91.80
21742;BME280;11033;47.490;11.116;2022-10-16T02:33:54;93322.09;;;11.81;93.15
21742;BME280;11033;47.490;11.116;2022-10-16T02:36:23;93317.84;;;11.86;92.57
21742;BME280;11033;47.490;11.116;2022-10-16T02:38:48;93328.28;;;11.73;93.69
21742;BME280;11033;47.490;11.116;2022-10-16T02:41:14;93326.09;;;11.77;93.63
21742;BME280;11033;47.490;11.116;2022-10-16T02:43:40;93332.56;;;11.74;93.64
21742;BME280;11033;47.490;11.116;2022-10-16T02:46:05;93319.63;;;11.79;93.10
21742;BME280;11033;47.490;11.116;2022-10-16T02:48:31;93331.22;;;11.78;93.21
21742;BME280;11033;47.490;11.116;2022-10-16T02:50:56;93323.66;;;11.75;94.10
21742;BME280;11033;47.490;11.116;2022-10-16T02:53:22;93325.94;;;11.78;93.50
21742;BME280;11033;47.490;11.116;2022-10-16T02:55:47;93330.44;;;11.84;92.57
21742;BME280;11033;47.490;11.116;2022-10-16T02:58:12;93331.06;;;11.86;93.06
21742;BME280;11033;47.490;11.116;2022-10-16T03:00:38;93328.03;;;11.89;92.21
21742;BME280;11033;47.490;11.116;2022-10-16T03:03:03;93326.78;;;11.85;92.52
21742;BME280;11033;47.490;11.116;2022-10-16T03:05:28;93331.69;;;11.88;92.38
21742;BME280;11033;47.490;11.116;2022-10-16T03:07:54;93330.03;;;11.87;92.18
21742;BME280;11033;47.490;11.116;2022-10-16T03:10:19;93332.88;;;11.86;92.33
21742;BME280;11033;47.490;11.116;2022-10-16T03:12:44;93331.06;;;11.86;92.40
21742;BME280;11033;47.490;11.116;2022-10-16T03:15:10;93319.91;;;11.91;91.74
21742;BME280;11033;47.490;11.116;2022-10-16T03:17:35;93315.88;;;11.95;91.72
21742;BME280;11033;47.490;11.116;2022-10-16T03:20:02;93322.56;;;11.91;92.06
21742;BME280;11033;47.490;11.116;2022-10-16T03:22:27;93319.50;;;11.87;92.40
21742;BME280;11033;47.490;11.116;2022-10-16T03:24:53;93319.50;;;11.87;93.18
21742;BME280;11033;47.490;11.116;2022-10-16T03:27:18;93331.28;;;11.91;92.47
21742;BME280;11033;47.490;11.116;2022-10-16T03:29:43;93341.03;;;11.91;92.67
21742;BME280;11033;47.490;11.116;2022-10-16T03:32:08;93347.50;;;11.88;93.48
21742;BME280;11033;47.490;11.116;2022-10-16T03:34:34;93350.16;;;11.88;93.19
21742;BME280;11033;47.490;11.116;2022-10-16T03:36:59;93347.50;;;11.88;92.12
21742;BME280;11033;47.490;11.116;2022-10-16T03:39:24;93346.31;;;11.91;91.38
21742;BME280;11033;47.490;11.116;2022-10-16T03:41:50;93352.41;;;11.91;92.01
21742;BME280;11033;47.490;11.116;2022-10-16T03:44:15;93353.03;;;11.93;92.37
21742;BME280;11033;47.490;11.116;2022-10-16T03:46:40;93354.84;;;11.93;92.33
21742;BME280;11033;47.490;11.116;2022-10-16T03:49:06;93350.38;;;11.93;91.40
21742;BME280;11033;47.490;11.116;2022-10-16T03:51:31;93345.53;;;11.97;92.43
21742;BME280;11033;47.490;11.116;2022-10-16T03:53:56;93351.53;;;11.84;95.02
21742;BME280;11033;47.490;11.116;2022-10-16T03:56:22;93356.69;;;11.92;94.31
21742;BME280;11033;47.490;11.116;2022-10-16T03:58:47;93358.75;;;11.97;94.55
21742;BME280;11033;47.490;11.116;2022-10-16T04:01:12;93357.94;;;11.96;92.39
21742;BME280;11033;47.490;11.116;2022-10-16T04:03:38;93361.56;;;11.95;93.49
21742;BME280;11033;47.490;11.116;2022-10-16T04:06:03;93355.91;;;11.98;92.42
21742;BME280;11033;47.490;11.116;2022-10-16T04:08:28;93357.94;;;11.96;92.72
21742;BME280;11033;47.490;11.116;2022-10-16T04:10:54;93362.19;;;11.97;92.14
21742;BME280;11033;47.490;11.116;2022-10-16T04:13:19;93365.47;;;11.99;92.19
21742;BME280;11033;47.490;11.116;2022-10-16T04:15:45;93363.81;;;11.98;92.44
21742;BME280;11033;47.490;11.116;2022-10-16T04:18:10;93356.69;;;11.92;93.65
21742;BME280;11033;47.490;11.116;2022-10-16T04:20:36;93363.41;;;11.95;93.07
21742;BME280;11033;47.490;11.116;2022-10-16T04:23:01;93358.94;;;11.95;92.52
21742;BME280;11033;47.490;11.116;2022-10-16T04:25:27;93357.94;;;11.96;93.46
21742;BME280;11033;47.490;11.116;2022-10-16T04:27:53;93372.81;;;12.04;93.04
21742;BME280;11033;47.490;11.116;2022-10-16T04:30:18;93370.94;;;11.98;94.15
21742;BME280;11033;47.490;11.116;2022-10-16T04:32:48;93370.34;;;12.02;92.69
21742;BME280;11033;47.490;11.116;2022-10-16T04:35:13;93371.97;;;12.03;92.18
21742;BME280;11033;47.490;11.116;2022-10-16T04:37:39;93374.44;;;12.05;92.86
21742;BME280;11033;47.490;11.116;2022-10-16T04:40:04;93379.31;;;12.08;92.04
21742;BME280;11033;47.490;11.116;2022-10-16T04:42:30;93381.78;;;12.10;92.73
21742;BME280;11033;47.490;11.116;2022-10-16T04:44:55;93378.91;;;12.04;93.14
21742;BME280;11033;47.490;11.116;2022-10-16T04:47:21;93380.53;;;12.05;93.03
21742;BME280;11033;47.490;11.116;2022-10-16T04:49:46;93377.25;;;12.03;92.75
21742;BME280;11033;47.490;11.116;2022-10-16T04:52:11;93378.69;;;12.06;92.69
21742;BME280;11033;47.490;11.116;2022-10-16T04:54:37;93372.38;;;12.00;92.34
21742;BME280;11033;47.490;11.116;2022-10-16T04:57:02;93375.59;;;11.96;92.52
21742;BME280;11033;47.490;11.116;2022-10-16T04:59:27;93363.78;;;11.92;92.97
21742;BME280;11033;47.490;11.116;2022-10-16T05:01:53;93363.59;;;11.93;92.49
21742;BME280;11033;47.490;11.116;2022-10-16T05:04:18;93354.44;;;11.89;92.76
21742;BME280;11033;47.490;11.116;2022-10-16T05:06:43;93350.72;;;11.84;93.33
21742;BME280;11033;47.490;11.116;2022-10-16T05:09:09;93357.25;;;11.88;92.33
21742;BME280;11033;47.490;11.116;2022-10-16T05:11:35;93359.09;;;11.87;92.46
21742;BME280;11033;47.490;11.116;2022-10-16T05:14:00;93372.28;;;11.87;92.62
21742;BME280;11033;47.490;11.116;2022-10-16T05:16:26;93372.91;;;11.89;91.67
21742;BME280;11033;47.490;11.116;2022-10-16T05:18:52;93367.00;;;11.87;92.74
21742;BME280;11033;47.490;11.116;2022-10-16T05:21:17;93362.31;;;11.83;93.22
21742;BME280;11033;47.490;11.116;2022-10-16T05:23:43;93364.75;;;11.84;92.53
21742;BME280;11033;47.490;11.116;2022-10-16T05:26:08;93364.75;;;11.84;92.00
21742;BME280;11033;47.490;11.116;2022-10-16T05:28:33;93359.22;;;11.79;91.66
21742;BME280;11033;47.490;11.116;2022-10-16T05:30:59;93357.59;;;11.78;91.97
21742;BME280;11033;47.490;11.116;2022-10-16T05:33:25;93363.13;;;11.83;91.54
21742;BME280;11033;47.490;11.116;2022-10-16T05:35:51;93356.00;;;11.84;91.53
21742;BME280;11033;47.490;11.116;2022-10-16T05:38:17;93358.56;;;11.77;92.37
21742;BME280;11033;47.490;11.116;2022-10-16T05:40:43;93355.94;;;11.77;92.38
21742;BME280;11033;47.490;11.116;2022-10-16T05:43:09;93352.25;;;11.71;92.30
21742;BME280;11033;47.490;11.116;2022-10-16T05:45:34;93347.41;;;11.75;91.32
21742;BME280;11033;47.490;11.116;2022-10-16T05:48:00;93348.31;;;11.67;92.51
21742;BME280;11033;47.490;11.116;2022-10-16T05:50:26;93353.06;;;11.72;92.32
21742;BME280;11033;47.490;11.116;2022-10-16T05:52:51;93349.75;;;11.70;92.37
21742;BME280;11033;47.490;11.116;2022-10-16T05:55:17;93353.25;;;11.70;92.45
21742;BME280;11033;47.490;11.116;2022-10-16T05:57:42;93356.31;;;11.74;94.13
21742;BME280;11033;47.490;11.116;2022-10-16T06:00:08;93381.06;;;11.73;94.93
21742;BME280;11033;47.490;11.116;2022-10-16T06:02:33;93397.63;;;11.82;94.07
21742;BME280;11033;47.490;11.116;2022-10-16T06:04:58;93385.72;;;11.92;92.36
21742;BME280;11033;47.490;11.116;2022-10-16T06:07:24;93392.25;;;11.96;91.05
21742;BME280;11033;47.490;11.116;2022-10-16T06:09:50;93382.06;;;11.93;92.71
21742;BME280;11033;47.490;11.116;2022-10-16T06:12:16;93397.91;;;11.93;93.13
21742;BME280;11033;47.490;11.116;2022-10-16T06:14:42;93396.72;;;11.96;92.54
21742;BME280;11033;47.490;11.116;2022-10-16T06:17:07;93401.25;;;12.09;92.40
21742;BME280;11033;47.490;11.116;2022-10-16T06:19:32;93397.84;;;12.15;91.95
21742;BME280;11033;47.490;11.116;2022-10-16T06:21:58;93399.88;;;12.13;91.19
21742;BME280;11033;47.490;11.116;2022-10-16T06:24:24;93401.13;;;12.17;90.69
21742;BME280;11033;47.490;11.116;2022-10-16T06:26:49;93406.00;;;12.20;91.65
21742;BME280;11033;47.490;11.116;2022-10-16T06:29:15;93399.34;;;12.24;90.57
21742;BME280;11033;47.490;11.116;2022-10-16T06:31:40;93404.75;;;12.16;92.92
21742;BME280;11033;47.490;11.116;2022-10-16T06:34:05;93410.53;;;12.26;92.51
21742;BME280;11033;47.490;11.116;2022-10-16T06:36:34;93413.81;;;12.34;91.92
21742;BME280;11033;47.490;11.116;2022-10-16T06:38:59;93402.31;;;12.42;90.70
21742;BME280;11033;47.490;11.116;2022-10-16T06:41:25;93417.00;;;12.51;90.14
21742;BME280;11033;47.490;11.116;2022-10-16T06:43:51;93420.06;;;12.55;90.04
21742;BME280;11033;47.490;11.116;2022-10-16T06:46:19;93421.13;;;12.60;90.03
21742;BME280;11033;47.490;11.116;2022-10-16T06:48:45;93419.50;;;12.66;90.64
21742;BME280;11033;47.490;11.116;2022-10-16T06:51:16;93425.22;;;12.69;89.83
21742;BME280;11033;47.490;11.116;2022-10-16T06:53:47;93430.13;;;12.73;90.02
21742;BME280;11033;47.490;11.116;2022-10-16T06:56:23;93438.28;;;12.78;89.31
21742;BME280;11033;47.490;11.116;2022-10-16T06:58:49;93438.91;;;12.80;88.99
21742;BME280;11033;47.490;11.116;2022-10-16T07:01:17;93434.66;;;12.85;88.94
21742;BME280;11033;47.490;11.116;2022-10-16T07:03:44;93445.44;;;12.90;89.25
21742;BME280;11033;47.490;11.116;2022-10-16T07:06:11;93446.09;;;12.99;88.52
21742;BME280;11033;47.490;11.116;2022-10-16T07:08:39;93449.22;;;13.09;87.87
21742;BME280;11033;47.490;11.116;2022-10-16T07:11:07;93452.28;;;13.13;87.97
21742;BME280;11033;47.490;11.116;2022-10-16T07:13:34;93450.31;;;13.21;87.32
21742;BME280;11033;47.490;11.116;2022-10-16T07:16:12;93446.47;;;13.30;87.18
21742;BME280;11033;47.490;11.116;2022-10-16T07:18:38;93452.81;;;13.43;86.87
21742;BME280;11033;47.490;11.116;2022-10-16T07:21:06;93448.56;;;13.55;87.78
21742;BME280;11033;47.490;11.116;2022-10-16T07:23:32;93450.47;;;13.68;87.75
21742;BME280;11033;47.490;11.116;2022-10-16T07:25:57;93450.88;;;13.84;86.78
21742;BME280;11033;47.490;11.116;2022-10-16T07:28:22;93447.63;;;13.95;86.67
21742;BME280;11033;47.490;11.116;2022-10-16T07:30:48;93457.00;;;14.11;86.84
21742;BME280;11033;47.490;11.116;2022-10-16T07:33:13;93459.88;;;14.23;87.38
21742;BME280;11033;47.490;11.116;2022-10-16T07:35:53;93450.72;;;14.32;86.57
21742;BME280;11033;47.490;11.116;2022-10-16T07:38:20;93457.03;;;14.57;83.83
21742;BME280;11033;47.490;11.116;2022-10-16T07:40:45;93462.13;;;14.66;83.51
21742;BME280;11033;47.490;11.116;2022-10-16T07:43:10;93466.38;;;14.80;82.86
21742;BME280;11033;47.490;11.116;2022-10-16T07:45:36;93472.91;;;14.77;82.46
21742;BME280;11033;47.490;11.116;2022-10-16T07:48:02;93466.75;;;14.90;81.91
21742;BME280;11033;47.490;11.116;2022-10-16T07:50:27;93472.47;;;14.94;82.31
21742;BME280;11033;47.490;11.116;2022-10-16T07:52:53;93468.19;;;14.93;81.56
21742;BME280;11033;47.490;11.116;2022-10-16T07:55:18;93470.63;;;15.01;82.20
21742;BME280;11033;47.490;11.116;2022-10-16T07:57:43;93465.50;;;15.06;82.72
21742;BME280;11033;47.490;11.116;2022-10-16T08:00:09;93473.88;;;15.09;82.79
21742;BME280;11033;47.490;11.116;2022-10-16T08:02:41;93469.16;;;15.11;84.07
21742;BME280;11033;47.490;11.116;2022-10-16T08:05:07;93482.81;;;15.21;82.97
21742;BME280;11033;47.490;11.116;2022-10-16T08:07:33;93479.75;;;15.25;82.09
21742;BME280;11033;47.490;11.116;2022-10-16T08:09:58;93495.25;;;15.28;81.28
21742;BME280;11033;47.490;11.116;2022-10-16T08:12:24;93495.19;;;15.41;80.93
21742;BME280;11033;47.490;11.116;2022-10-16T08:14:50;93484.16;;;15.44;79.38
21742;BME280;11033;47.490;11.116;2022-10-16T08:17:15;93489.81;;;15.54;79.82
21742;BME280;11033;47.490;11.116;2022-10-16T08:19:44;93487.16;;;15.54;79.34
21742;BME280;11033;47.490;11.116;2022-10-16T08:22:10;93489.63;;;15.62;79.73
21742;BME280;11033;47.490;11.116;2022-10-16T08:24:35;93485.53;;;15.60;79.24
21742;BME280;11033;47.490;11.116;2022-10-16T08:27:02;93484.50;;;15.67;79.11
21742;BME280;11033;47.490;11.116;2022-10-16T08:29:27;93485.06;;;15.76;79.18
21742;BME280;11033;47.490;11.116;2022-10-16T08:31:53;93481.56;;;15.82;78.78
21742;BME280;11033;47.490;11.116;2022-10-16T08:34:18;93483.75;;;15.92;77.68
21742;BME280;11033;47.490;11.116;2022-10-16T08:36:43;93484.56;;;15.92;78.41
21742;BME280;11033;47.490;11.116;2022-10-16T08:39:08;93485.63;;;16.16;76.56
21742;BME280;11033;47.490;11.116;2022-10-16T08:47:23;93494.94;;;16.57;74.72
21742;BME280;11033;47.490;11.116;2022-10-16T08:49:59;93501.81;;;16.71;76.58
21742;BME280;11033;47.490;11.116;2022-10-16T08:52:30;93499.63;;;16.86;74.73
21742;BME280;11033;47.490;11.116;2022-10-16T08:54:57;93496.56;;;17.07;76.82
21742;BME280;11033;47.490;11.116;2022-10-16T08:57:25;93502.28;;;17.29;73.95
21742;BME280;11033;47.490;11.116;2022-10-16T08:59:52;93493.59;;;17.52;74.75
21742;BME280;11033;47.490;11.116;2022-10-16T09:14:50;93498.44;;;18.52;68.54
21742;BME280;11033;47.490;11.116;2022-10-16T09:16:54;93503.72;;;18.70;71.56
21742;BME280;11033;47.490;11.116;2022-10-16T09:19:28;93497.91;;;18.85;70.42
21742;BME280;11033;47.490;11.116;2022-10-16T09:21:57;93498.53;;;18.98;64.42
21742;BME280;11033;47.490;11.116;2022-10-16T09:24:26;93506.41;;;19.17;65.12
21742;BME280;11033;47.490;11.116;2022-10-16T09:26:51;93512.78;;;19.39;66.88
21742;BME280;11033;47.490;11.116;2022-10-16T09:29:19;93524.28;;;19.51;63.10
21742;BME280;11033;47.490;11.116;2022-10-16T09:31:52;93523.59;;;19.68;65.22
21742;BME280;11033;47.490;11.116;2022-10-16T09:34:32;93522.75;;;19.79;63.37
21742;BME280;11033;47.490;11.116;2022-10-16T09:37:00;93526.75;;;19.93;62.21
21742;BME280;11033;47.490;11.116;2022-10-16T09:39:28;93525.44;;;20.07;62.06
21742;BME280;11033;47.490;11.116;2022-10-16T09:41:55;93528.66;;;20.21;63.12
21742;BME280;11033;47.490;11.116;2022-10-16T09:44:26;93531.91;;;20.23;56.90
21742;BME280;11033;47.490;11.116;2022-10-16T09:49:27;93532.31;;;20.88;60.47
21742;BME280;11033;47.490;11.116;2022-10-16T09:52:04;93536.47;;;21.90;59.97
21742;BME280;11033;47.490;11.116;2022-10-16T09:54:30;93535.41;;;22.84;59.82
21742;BME280;11033;47.490;11.116;2022-10-16T09:57:05;93531.72;;;23.59;59.31
21742;BME280;11033;47.490;11.116;2022-10-16T09:59:31;93524.75;;;24.20;56.76
21742;BME280;11033;47.490;11.116;2022-10-16T10:01:56;93519.75;;;24.64;50.54
21742;BME280;11033;47.490;11.116;2022-10-16T10:04:38;93517.66;;;24.92;51.04
21742;BME280;11033;47.490;11.116;2022-10-16T10:07:04;93514.44;;;25.31;48.74
21742;BME280;11033;47.490;11.116;2022-10-16T10:09:39;93512.84;;;25.14;46.07
21742;BME280;11033;47.490;11.116;2022-10-16T10:12:06;93515.13;;;25.97;49.72
21742;BME280;11033;47.490;11.116;2022-10-16T10:14:46;93511.28;;;26.78;43.19
21742;BME280;11033;47.490;11.116;2022-10-16T10:17:22;93518.69;;;27.69;46.51
21742;BME280;11033;47.490;11.116;2022-10-16T10:19:55;93505.53;;;26.90;39.63
21742;BME280;11033;47.490;11.116;2022-10-16T10:22:24;93500.97;;;29.29;42.88
21742;BME280;11033;47.490;11.116;2022-10-16T10:27:32;93481.22;;;30.02;41.35
21742;BME280;11033;47.490;11.116;2022-10-16T10:44:34;93477.81;;;30.87;35.83
21742;BME280;11033;47.490;11.116;2022-10-16T10:47:25;93469.03;;;32.20;38.46
21742;BME280;11033;47.490;11.116;2022-10-16T10:55:52;93464.38;;;32.20;34.31
21742;BME280;11033;47.490;11.116;2022-10-16T10:58:42;93459.69;;;31.72;32.50
21742;BME280;11033;47.490;11.116;2022-10-16T11:01:16;93463.53;;;33.71;32.77
21742;BME280;11033;47.490;11.116;2022-10-16T11:06:33;93454.00;;;31.60;37.13
21742;BME280;11033;47.490;11.116;2022-10-16T11:09:12;93457.50;;;35.55;30.94
21742;BME280;11033;47.490;11.116;2022-10-16T11:12:07;93448.56;;;34.24;30.18
21742;BME280;11033;47.490;11.116;2022-10-16T11:17:19;93454.13;;;37.41;32.23
21742;BME280;11033;47.490;11.116;2022-10-16T11:25:22;93442.03;;;38.99;30.13
21742;BME280;11033;47.490;11.116;2022-10-16T11:28:11;93441.94;;;35.47;27.36
21742;BME280;11033;47.490;11.116;2022-10-16T11:33:45;93444.59;;;38.73;29.29
21742;BME280;11033;47.490;11.116;2022-10-16T11:36:17;93439.88;;;40.05;29.95
21742;BME280;11033;47.490;11.116;2022-10-16T11:39:03;93433.50;;;40.01;29.89
21742;BME280;11033;47.490;11.116;2022-10-16T11:41:47;93432.53;;;36.50;27.46
21742;BME280;11033;47.490;11.116;2022-10-16T11:44:17;93426.91;;;37.80;25.27
21742;BME280;11033;47.490;11.116;2022-10-16T11:49:31;93427.25;;;35.97;26.52
21742;BME280;11033;47.490;11.116;2022-10-16T11:52:08;93428.00;;;34.98;26.95
21742;BME280;11033;47.490;11.116;2022-10-16T11:54:49;93421.13;;;37.41;26.33
21742;BME280;11033;47.490;11.116;2022-10-16T11:57:24;93417.56;;;39.52;24.07
21742;BME280;11033;47.490;11.116;2022-10-16T11:59:58;93416.84;;;39.17;26.94
21742;BME280;11033;47.490;11.116;2022-10-16T12:02:46;93410.22;;;38.51;27.27
21742;BME280;11033;47.490;11.116;2022-10-16T12:05:25;93415.91;;;38.11;25.89
21742;BME280;11033;47.490;11.116;2022-10-16T12:08:14;93408.25;;;40.75;27.27
21742;BME280;11033;47.490;11.116;2022-10-16T12:10:43;93406.16;;;41.88;24.36
21742;BME280;11033;47.490;11.116;2022-10-16T12:18:43;93399.31;;;43.25;24.76
21742;BME280;11033;47.490;11.116;2022-10-16T12:21:11;93402.69;;;42.35;23.63
21742;BME280;11033;47.490;11.116;2022-10-16T12:23:49;93404.84;;;43.18;23.24
21742;BME280;11033;47.490;11.116;2022-10-16T12:26:26;93405.50;;;43.67;22.72
21742;BME280;11033;47.490;11.116;2022-10-16T12:28:53;93405.47;;;42.39;20.04
21742;BME280;11033;47.490;11.116;2022-10-16T12:31:18;93403.94;;;43.83;22.13
21742;BME280;11033;47.490;11.116;2022-10-16T12:33:58;93396.03;;;45.13;19.06
21742;BME280;11033;47.490;11.116;2022-10-16T12:36:30;93398.28;;;45.47;22.37
21742;BME280;11033;47.490;11.116;2022-10-16T12:38:57;93397.94;;;43.67;21.97
21742;BME280;11033;47.490;11.116;2022-10-16T12:41:32;93402.69;;;45.44;21.26
21742;BME280;11033;47.490;11.116;2022-10-16T12:43:58;93401.44;;;45.63;20.52
21742;BME280;11033;47.490;11.116;2022-10-16T12:49:06;93398.66;;;45.63;21.41
21742;BME280;11033;47.490;11.116;2022-10-16T13:15:32;93383.72;;;45.07;18.84
21742;BME280;11033;47.490;11.116;2022-10-16T13:18:14;93407.34;;;47.96;19.07
21742;BME280;11033;47.490;11.116;2022-10-16T13:21:05;93392.34;;;46.73;17.37
21742;BME280;11033;47.490;11.116;2022-10-16T13:29:06;93402.69;;;46.77;17.71
21742;BME280;11033;47.490;11.116;2022-10-16T13:31:32;93411.72;;;47.66;18.76
21742;BME280;11033;47.490;11.116;2022-10-16T13:33:58;93412.75;;;47.80;19.13
21742;BME280;11033;47.490;11.116;2022-10-16T13:36:27;93420.94;;;48.78;17.60
21742;BME280;11033;47.490;11.116;2022-10-16T13:39:10;93421.06;;;48.95;17.72
21742;BME280;11033;47.490;11.116;2022-10-16T13:41:36;93425.41;;;49.82;18.16
21742;BME280;11033;47.490;11.116;2022-10-16T13:44:02;93429.31;;;48.78;16.75
21742;BME280;11033;47.490;11.116;2022-10-16T13:46:27;93431.50;;;49.77;18.47
21742;BME280;11033;47.490;11.116;2022-10-16T13:51:27;93434.03;;;48.58;18.17
21742;BME280;11033;47.490;11.116;2022-10-16T13:53:55;93433.81;;;49.19;19.12
21742;BME280;11033;47.490;11.116;2022-10-16T13:56:22;93427.41;;;48.21;17.28
21742;BME280;11033;47.490;11.116;2022-10-16T13:59:01;93428.47;;;48.81;16.77
21742;BME280;11033;47.490;11.116;2022-10-16T14:01:32;93419.56;;;48.63;18.13
21742;BME280;11033;47.490;11.116;2022-10-16T14:04:05;93421.31;;;48.77;16.29
21742;BME280;11033;47.490;11.116;2022-10-16T14:06:32;93421.91;;;50.34;16.35
21742;BME280;11033;47.490;11.116;2022-10-16T14:09:02;93423.72;;;47.29;18.30
21742;BME280;11033;47.490;11.116;2022-10-16T14:11:29;93420.72;;;47.47;18.20
21742;BME280;11033;47.490;11.116;2022-10-16T14:13:55;93423.84;;;47.87;17.89
21742;BME280;11033;47.490;11.116;2022-10-16T14:16:23;93423.47;;;49.16;17.83
21742;BME280;11033;47.490;11.116;2022-10-16T14:18:59;93421.22;;;49.50;19.33
21742;BME280;11033;47.490;11.116;2022-10-16T14:21:25;93419.84;;;47.88;18.05
21742;BME280;11033;47.490;11.116;2022-10-16T14:23:52;93421.78;;;48.99;18.27
21742;BME280;11033;47.490;11.116;2022-10-16T14:26:20;93419.16;;;48.38;19.17
21742;BME280;11033;47.490;11.116;2022-10-16T14:28:47;93412.84;;;47.39;18.02
21742;BME280;11033;47.490;11.116;2022-10-16T14:33:44;93403.81;;;46.34;19.13
21742;BME280;11033;47.490;11.116;2022-10-16T14:38:35;93408.25;;;46.28;18.02
21742;BME280;11033;47.490;11.116;2022-10-16T14:41:00;93404.28;;;46.78;18.60
21742;BME280;11033;47.490;11.116;2022-10-16T14:43:37;93403.69;;;46.52;18.58
21742;BME280;11033;47.490;11.116;2022-10-16T14:46:17;93414.59;;;46.84;17.71
21742;BME280;11033;47.490;11.116;2022-10-16T14:48:47;93405.06;;;46.78;19.77
21742;BME280;11033;47.490;11.116;2022-10-16T14:51:15;93412.03;;;45.90;20.36
21742;BME280;11033;47.490;11.116;2022-10-16T14:53:40;93411.19;;;44.91;19.57